sensor_id;sensor_type;location;lat;lon;timestamp;P1;durP1;ratioP1;P2;durP2;ratioP2
18834;SDS011;9546;59.262;18.036;2022-08-21T00:00:58;7.55;;;1.55;;
18834;SDS011;9546;59.262;18.036;2022-08-21T00:03:27;4.32;;;1.40;;
18834;SDS011;9546;59.262;18.036;2022-08-21T00:05:54;3.95;;;1.48;;
18834;SDS011;9546;59.262;18.036;2022-08-21T00:08:20;5.20;;;1.30;;
18834;SDS011;9546;59.262;18.036;2022-08-21T00:10:47;6.15;;;1.20;;
18834;SDS011;9546;59.262;18.036;2022-08-21T00:13:16;3.45;;;1.40;;
18834;SDS011;9546;59.262;18.036;2022-08-21T00:15:43;5.03;;;1.38;;
18834;SDS011;9546;59.262;18.036;2022-08-21T00:18:10;3.47;;;1.17;;
18834;SDS011;9546;59.262;18.036;2022-08-21T00:20:42;5.82;;;1.52;;
18834;SDS011;9546;59.262;18.036;2022-08-21T00:23:09;5.93;;;1.45;;
18834;SDS011;9546;59.262;18.036;2022-08-21T00:25:35;4.57;;;1.30;;
18834;SDS011;9546;59.262;18.036;2022-08-21T00:28:03;6.88;;;1.35;;
18834;SDS011;9546;59.262;18.036;2022-08-21T00:30:32;5.93;;;1.40;;
18834;SDS011;9546;59.262;18.036;2022-08-21T00:32:58;5.72;;;1.30;;
18834;SDS011;9546;59.262;18.036;2022-08-21T00:35:26;5.15;;;1.65;;
18834;SDS011;9546;59.262;18.036;2022-08-21T00:37:54;4.30;;;1.30;;
18834;SDS011;9546;59.262;18.036;2022-08-21T00:40:22;3.38;;;1.20;;
18834;SDS011;9546;59.262;18.036;2022-08-21T00:42:49;5.28;;;1.65;;
18834;SDS011;9546;59.262;18.036;2022-08-21T00:45:16;4.38;;;1.20;;
18834;SDS011;9546;59.262;18.036;2022-08-21T00:47:42;3.45;;;1.30;;
18834;SDS011;9546;59.262;18.036;2022-08-21T00:50:09;3.20;;;1.08;;
18834;SDS011;9546;59.262;18.036;2022-08-21T01:12:32;5.75;;;1.70;;
18834;SDS011;9546;59.262;18.036;2022-08-21T01:14:59;4.53;;;1.60;;
18834;SDS011;9546;59.262;18.036;2022-08-21T01:17:27;5.00;;;1.73;;
18834;SDS011;9546;59.262;18.036;2022-08-21T01:19:56;7.82;;;1.90;;
18834;SDS011;9546;59.262;18.036;2022-08-21T01:22:24;4.32;;;1.50;;
18834;SDS011;9546;59.262;18.036;2022-08-21T01:24:51;5.65;;;1.40;;
18834;SDS011;9546;59.262;18.036;2022-08-21T01:27:17;4.95;;;1.58;;
18834;SDS011;9546;59.262;18.036;2022-08-21T01:29:46;3.97;;;1.30;;
18834;SDS011;9546;59.262;18.036;2022-08-21T01:32:14;2.90;;;1.23;;
18834;SDS011;9546;59.262;18.036;2022-08-21T01:34:42;6.68;;;1.83;;
18834;SDS011;9546;59.262;18.036;2022-08-21T01:37:09;6.15;;;1.63;;
18834;SDS011;9546;59.262;18.036;2022-08-21T01:39:37;7.47;;;1.55;;
18834;SDS011;9546;59.262;18.036;2022-08-21T01:42:04;2.78;;;1.20;;
18834;SDS011;9546;59.262;18.036;2022-08-21T01:44:31;3.22;;;1.40;;
18834;SDS011;9546;59.262;18.036;2022-08-21T01:46:58;8.20;;;1.67;;
18834;SDS011;9546;59.262;18.036;2022-08-21T01:49:25;4.57;;;1.35;;
18834;SDS011;9546;59.262;18.036;2022-08-21T01:51:52;7.00;;;1.45;;
18834;SDS011;9546;59.262;18.036;2022-08-21T01:54:19;2.78;;;1.65;;
18834;SDS011;9546;59.262;18.036;2022-08-21T01:56:48;4.68;;;1.27;;
18834;SDS011;9546;59.262;18.036;2022-08-21T01:59:15;5.07;;;1.50;;
18834;SDS011;9546;59.262;18.036;2022-08-21T02:01:41;6.22;;;1.63;;
18834;SDS011;9546;59.262;18.036;2022-08-21T02:04:08;6.25;;;1.83;;
18834;SDS011;9546;59.262;18.036;2022-08-21T02:06:35;2.97;;;1.25;;
18834;SDS011;9546;59.262;18.036;2022-08-21T02:09:02;7.65;;;2.00;;
18834;SDS011;9546;59.262;18.036;2022-08-21T02:11:28;6.00;;;1.63;;
18834;SDS011;9546;59.262;18.036;2022-08-21T02:13:56;7.45;;;1.70;;
18834;SDS011;9546;59.262;18.036;2022-08-21T02:16:23;3.92;;;1.50;;
18834;SDS011;9546;59.262;18.036;2022-08-21T02:18:49;4.80;;;1.58;;
18834;SDS011;9546;59.262;18.036;2022-08-21T02:21:16;5.82;;;1.65;;
18834;SDS011;9546;59.262;18.036;2022-08-21T02:23:43;5.72;;;1.63;;
18834;SDS011;9546;59.262;18.036;2022-08-21T02:26:09;7.35;;;1.95;;
18834;SDS011;9546;59.262;18.036;2022-08-21T02:28:36;6.82;;;1.55;;
18834;SDS011;9546;59.262;18.036;2022-08-21T02:31:04;6.10;;;1.38;;
18834;SDS011;9546;59.262;18.036;2022-08-21T02:33:31;6.32;;;1.63;;
18834;SDS011;9546;59.262;18.036;2022-08-21T02:35:58;3.42;;;1.35;;
18834;SDS011;9546;59.262;18.036;2022-08-21T02:38:26;6.30;;;1.67;;
18834;SDS011;9546;59.262;18.036;2022-08-21T02:40:53;3.75;;;1.35;;
18834;SDS011;9546;59.262;18.036;2022-08-21T02:43:20;4.93;;;1.55;;
18834;SDS011;9546;59.262;18.036;2022-08-21T02:45:47;5.30;;;1.83;;
18834;SDS011;9546;59.262;18.036;2022-08-21T02:48:16;7.55;;;1.65;;
18834;SDS011;9546;59.262;18.036;2022-08-21T02:50:44;7.65;;;1.50;;
18834;SDS011;9546;59.262;18.036;2022-08-21T03:12:24;4.90;;;1.48;;
18834;SDS011;9546;59.262;18.036;2022-08-21T03:14:51;9.60;;;1.50;;
18834;SDS011;9546;59.262;18.036;2022-08-21T03:17:17;4.20;;;1.52;;
18834;SDS011;9546;59.262;18.036;2022-08-21T03:19:44;6.07;;;1.77;;
18834;SDS011;9546;59.262;18.036;2022-08-21T03:22:11;3.05;;;1.58;;
18834;SDS011;9546;59.262;18.036;2022-08-21T03:24:37;4.38;;;1.50;;
18834;SDS011;9546;59.262;18.036;2022-08-21T03:27:04;8.63;;;2.28;;
18834;SDS011;9546;59.262;18.036;2022-08-21T03:29:32;4.20;;;1.80;;
18834;SDS011;9546;59.262;18.036;2022-08-21T03:31:58;7.28;;;2.05;;
18834;SDS011;9546;59.262;18.036;2022-08-21T03:34:25;9.15;;;1.60;;
18834;SDS011;9546;59.262;18.036;2022-08-21T03:36:51;7.53;;;1.67;;
18834;SDS011;9546;59.262;18.036;2022-08-21T03:39:18;3.90;;;1.42;;
18834;SDS011;9546;59.262;18.036;2022-08-21T03:41:44;7.95;;;2.25;;
18834;SDS011;9546;59.262;18.036;2022-08-21T03:44:12;7.07;;;1.83;;
18834;SDS011;9546;59.262;18.036;2022-08-21T03:46:40;7.40;;;1.80;;
18834;SDS011;9546;59.262;18.036;2022-08-21T03:49:06;9.43;;;2.40;;
18834;SDS011;9546;59.262;18.036;2022-08-21T03:51:33;7.40;;;2.08;;
18834;SDS011;9546;59.262;18.036;2022-08-21T03:54:00;4.55;;;1.65;;
18834;SDS011;9546;59.262;18.036;2022-08-21T03:56:27;6.22;;;1.80;;
18834;SDS011;9546;59.262;18.036;2022-08-21T03:58:53;6.25;;;1.60;;
18834;SDS011;9546;59.262;18.036;2022-08-21T04:01:20;5.20;;;1.90;;
18834;SDS011;9546;59.262;18.036;2022-08-21T04:03:48;7.82;;;1.73;;
18834;SDS011;9546;59.262;18.036;2022-08-21T04:06:15;4.97;;;1.80;;
18834;SDS011;9546;59.262;18.036;2022-08-21T04:08:41;8.65;;;2.00;;
18834;SDS011;9546;59.262;18.036;2022-08-21T04:11:08;9.05;;;1.90;;
18834;SDS011;9546;59.262;18.036;2022-08-21T04:13:36;6.60;;;1.83;;
18834;SDS011;9546;59.262;18.036;2022-08-21T04:16:03;5.40;;;1.88;;
18834;SDS011;9546;59.262;18.036;2022-08-21T04:18:30;7.05;;;2.20;;
18834;SDS011;9546;59.262;18.036;2022-08-21T04:20:58;6.90;;;1.90;;
18834;SDS011;9546;59.262;18.036;2022-08-21T04:23:26;7.10;;;1.98;;
18834;SDS011;9546;59.262;18.036;2022-08-21T04:25:53;6.75;;;1.80;;
18834;SDS011;9546;59.262;18.036;2022-08-21T04:28:20;6.88;;;1.80;;
18834;SDS011;9546;59.262;18.036;2022-08-21T04:30:47;7.00;;;1.83;;
18834;SDS011;9546;59.262;18.036;2022-08-21T04:33:14;9.57;;;2.10;;
18834;SDS011;9546;59.262;18.036;2022-08-21T04:35:40;5.50;;;1.83;;
18834;SDS011;9546;59.262;18.036;2022-08-21T04:38:09;5.57;;;1.85;;
18834;SDS011;9546;59.262;18.036;2022-08-21T04:40:35;4.70;;;1.67;;
18834;SDS011;9546;59.262;18.036;2022-08-21T04:43:03;5.50;;;2.50;;
18834;SDS011;9546;59.262;18.036;2022-08-21T04:45:32;5.18;;;1.85;;
18834;SDS011;9546;59.262;18.036;2022-08-21T04:48:00;6.43;;;1.95;;
18834;SDS011;9546;59.262;18.036;2022-08-21T04:50:29;5.80;;;1.83;;
18834;SDS011;9546;59.262;18.036;2022-08-21T05:12:22;7.93;;;2.03;;
18834;SDS011;9546;59.262;18.036;2022-08-21T05:14:49;9.85;;;2.47;;
18834;SDS011;9546;59.262;18.036;2022-08-21T05:17:15;7.63;;;2.35;;
18834;SDS011;9546;59.262;18.036;2022-08-21T05:19:42;9.00;;;2.25;;
18834;SDS011;9546;59.262;18.036;2022-08-21T05:22:08;7.65;;;2.30;;
18834;SDS011;9546;59.262;18.036;2022-08-21T05:24:35;6.40;;;2.58;;
18834;SDS011;9546;59.262;18.036;2022-08-21T05:27:03;6.97;;;2.25;;
18834;SDS011;9546;59.262;18.036;2022-08-21T05:29:33;6.78;;;1.80;;
18834;SDS011;9546;59.262;18.036;2022-08-21T05:31:59;9.10;;;2.47;;
18834;SDS011;9546;59.262;18.036;2022-08-21T05:34:26;7.47;;;2.33;;
18834;SDS011;9546;59.262;18.036;2022-08-21T05:36:52;7.20;;;2.53;;
18834;SDS011;9546;59.262;18.036;2022-08-21T05:39:19;7.78;;;2.53;;
18834;SDS011;9546;59.262;18.036;2022-08-21T05:41:46;7.57;;;1.88;;
18834;SDS011;9546;59.262;18.036;2022-08-21T05:44:12;6.78;;;2.00;;
18834;SDS011;9546;59.262;18.036;2022-08-21T05:46:40;6.80;;;1.98;;
18834;SDS011;9546;59.262;18.036;2022-08-21T05:49:07;8.35;;;1.92;;
18834;SDS011;9546;59.262;18.036;2022-08-21T05:51:33;6.03;;;1.95;;
18834;SDS011;9546;59.262;18.036;2022-08-21T05:54:00;5.68;;;1.83;;
18834;SDS011;9546;59.262;18.036;2022-08-21T05:56:26;8.23;;;2.42;;
18834;SDS011;9546;59.262;18.036;2022-08-21T05:58:53;9.10;;;1.90;;
18834;SDS011;9546;59.262;18.036;2022-08-21T06:01:20;10.15;;;2.55;;
18834;SDS011;9546;59.262;18.036;2022-08-21T06:03:48;13.68;;;2.00;;
18834;SDS011;9546;59.262;18.036;2022-08-21T06:06:15;8.10;;;2.40;;
18834;SDS011;9546;59.262;18.036;2022-08-21T06:08:41;6.25;;;1.88;;
18834;SDS011;9546;59.262;18.036;2022-08-21T06:11:09;7.32;;;1.67;;
18834;SDS011;9546;59.262;18.036;2022-08-21T06:13:36;8.20;;;2.53;;
18834;SDS011;9546;59.262;18.036;2022-08-21T06:16:05;9.80;;;2.65;;
18834;SDS011;9546;59.262;18.036;2022-08-21T06:18:32;12.13;;;2.33;;
18834;SDS011;9546;59.262;18.036;2022-08-21T06:21:00;4.47;;;1.90;;
18834;SDS011;9546;59.262;18.036;2022-08-21T06:23:27;6.50;;;1.70;;
18834;SDS011;9546;59.262;18.036;2022-08-21T06:25:53;12.05;;;2.28;;
18834;SDS011;9546;59.262;18.036;2022-08-21T06:28:20;9.70;;;2.35;;
18834;SDS011;9546;59.262;18.036;2022-08-21T06:30:47;7.72;;;2.05;;
18834;SDS011;9546;59.262;18.036;2022-08-21T06:33:13;8.82;;;2.70;;
18834;SDS011;9546;59.262;18.036;2022-08-21T06:35:40;6.72;;;2.25;;
18834;SDS011;9546;59.262;18.036;2022-08-21T06:38:08;8.57;;;2.30;;
18834;SDS011;9546;59.262;18.036;2022-08-21T06:40:34;7.45;;;2.50;;
18834;SDS011;9546;59.262;18.036;2022-08-21T06:43:05;7.28;;;2.00;;
18834;SDS011;9546;59.262;18.036;2022-08-21T06:45:32;10.50;;;2.10;;
18834;SDS011;9546;59.262;18.036;2022-08-21T06:47:58;8.27;;;2.42;;
18834;SDS011;9546;59.262;18.036;2022-08-21T06:50:25;9.73;;;2.30;;
18834;SDS011;9546;59.262;18.036;2022-08-21T07:12:17;5.22;;;2.20;;
18834;SDS011;9546;59.262;18.036;2022-08-21T07:14:44;6.82;;;1.70;;
18834;SDS011;9546;59.262;18.036;2022-08-21T07:17:11;8.75;;;2.53;;
18834;SDS011;9546;59.262;18.036;2022-08-21T07:19:37;7.05;;;1.90;;
18834;SDS011;9546;59.262;18.036;2022-08-21T07:22:04;7.05;;;1.88;;
18834;SDS011;9546;59.262;18.036;2022-08-21T07:24:31;7.55;;;2.58;;
18834;SDS011;9546;59.262;18.036;2022-08-21T07:26:58;8.68;;;1.77;;
18834;SDS011;9546;59.262;18.036;2022-08-21T07:29:26;9.85;;;2.33;;
18834;SDS011;9546;59.262;18.036;2022-08-21T07:31:53;7.57;;;1.90;;
18834;SDS011;9546;59.262;18.036;2022-08-21T07:34:20;6.07;;;2.28;;
18834;SDS011;9546;59.262;18.036;2022-08-21T07:36:47;11.23;;;2.40;;
18834;SDS011;9546;59.262;18.036;2022-08-21T07:39:13;8.85;;;2.17;;
18834;SDS011;9546;59.262;18.036;2022-08-21T07:41:40;11.00;;;2.38;;
18834;SDS011;9546;59.262;18.036;2022-08-21T07:44:07;13.15;;;2.90;;
18834;SDS011;9546;59.262;18.036;2022-08-21T07:46:35;5.03;;;1.75;;
18834;SDS011;9546;59.262;18.036;2022-08-21T07:49:02;7.60;;;2.20;;
18834;SDS011;9546;59.262;18.036;2022-08-21T07:54:33;14.27;;;2.83;;
18834;SDS011;9546;59.262;18.036;2022-08-21T07:57:00;7.60;;;2.35;;
18834;SDS011;9546;59.262;18.036;2022-08-21T07:59:27;8.75;;;2.05;;
18834;SDS011;9546;59.262;18.036;2022-08-21T08:01:56;6.53;;;1.90;;
18834;SDS011;9546;59.262;18.036;2022-08-21T08:04:23;7.13;;;2.15;;
18834;SDS011;9546;59.262;18.036;2022-08-21T08:06:50;6.90;;;2.13;;
18834;SDS011;9546;59.262;18.036;2022-08-21T08:09:17;7.95;;;2.28;;
18834;SDS011;9546;59.262;18.036;2022-08-21T08:11:44;7.90;;;2.58;;
18834;SDS011;9546;59.262;18.036;2022-08-21T08:14:11;6.68;;;2.45;;
18834;SDS011;9546;59.262;18.036;2022-08-21T08:16:38;6.25;;;2.22;;
18834;SDS011;9546;59.262;18.036;2022-08-21T08:19:06;6.07;;;1.55;;
18834;SDS011;9546;59.262;18.036;2022-08-21T08:21:33;6.32;;;1.95;;
18834;SDS011;9546;59.262;18.036;2022-08-21T08:24:01;5.75;;;1.80;;
18834;SDS011;9546;59.262;18.036;2022-08-21T08:26:31;3.30;;;1.80;;
18834;SDS011;9546;59.262;18.036;2022-08-21T08:28:58;6.05;;;1.98;;
18834;SDS011;9546;59.262;18.036;2022-08-21T08:31:25;5.68;;;2.05;;
18834;SDS011;9546;59.262;18.036;2022-08-21T08:33:52;7.03;;;2.38;;
18834;SDS011;9546;59.262;18.036;2022-08-21T08:36:20;10.07;;;2.80;;
18834;SDS011;9546;59.262;18.036;2022-08-21T08:38:58;7.47;;;2.05;;
18834;SDS011;9546;59.262;18.036;2022-08-21T08:41:26;7.75;;;2.22;;
18834;SDS011;9546;59.262;18.036;2022-08-21T08:43:55;8.07;;;2.05;;
18834;SDS011;9546;59.262;18.036;2022-08-21T08:46:29;5.72;;;2.05;;
18834;SDS011;9546;59.262;18.036;2022-08-21T08:49:02;7.10;;;2.63;;
18834;SDS011;9546;59.262;18.036;2022-08-21T08:51:39;4.88;;;2.22;;
18834;SDS011;9546;59.262;18.036;2022-08-21T09:12:30;3.88;;;1.63;;
18834;SDS011;9546;59.262;18.036;2022-08-21T09:15:06;6.25;;;1.83;;
18834;SDS011;9546;59.262;18.036;2022-08-21T09:17:49;6.90;;;2.22;;
18834;SDS011;9546;59.262;18.036;2022-08-21T09:20:28;8.88;;;2.25;;
18834;SDS011;9546;59.262;18.036;2022-08-21T09:23:06;5.25;;;1.85;;
18834;SDS011;9546;59.262;18.036;2022-08-21T09:25:42;5.70;;;1.95;;
18834;SDS011;9546;59.262;18.036;2022-08-21T09:28:18;7.63;;;1.90;;
18834;SDS011;9546;59.262;18.036;2022-08-21T09:30:45;9.82;;;2.42;;
18834;SDS011;9546;59.262;18.036;2022-08-21T09:33:12;5.97;;;1.92;;
18834;SDS011;9546;59.262;18.036;2022-08-21T09:35:47;5.93;;;1.65;;
18834;SDS011;9546;59.262;18.036;2022-08-21T09:38:24;8.00;;;2.10;;
18834;SDS011;9546;59.262;18.036;2022-08-21T09:40:56;8.02;;;2.45;;
18834;SDS011;9546;59.262;18.036;2022-08-21T09:43:26;6.30;;;2.10;;
18834;SDS011;9546;59.262;18.036;2022-08-21T09:46:03;8.80;;;1.83;;
18834;SDS011;9546;59.262;18.036;2022-08-21T09:48:42;4.85;;;2.28;;
18834;SDS011;9546;59.262;18.036;2022-08-21T09:51:13;6.00;;;1.83;;
18834;SDS011;9546;59.262;18.036;2022-08-21T09:53:45;5.40;;;1.70;;
18834;SDS011;9546;59.262;18.036;2022-08-21T09:56:19;4.00;;;1.63;;
18834;SDS011;9546;59.262;18.036;2022-08-21T09:59:15;6.45;;;1.58;;
18834;SDS011;9546;59.262;18.036;2022-08-21T10:01:45;4.72;;;2.00;;
18834;SDS011;9546;59.262;18.036;2022-08-21T10:04:14;6.47;;;1.90;;
18834;SDS011;9546;59.262;18.036;2022-08-21T10:06:45;5.72;;;1.75;;
18834;SDS011;9546;59.262;18.036;2022-08-21T10:09:13;5.63;;;2.17;;
18834;SDS011;9546;59.262;18.036;2022-08-21T10:11:43;6.55;;;2.10;;
18834;SDS011;9546;59.262;18.036;2022-08-21T10:14:25;5.10;;;1.67;;
18834;SDS011;9546;59.262;18.036;2022-08-21T10:17:07;4.55;;;1.95;;
18834;SDS011;9546;59.262;18.036;2022-08-21T10:19:42;5.72;;;2.15;;
18834;SDS011;9546;59.262;18.036;2022-08-21T10:22:17;4.95;;;1.77;;
18834;SDS011;9546;59.262;18.036;2022-08-21T10:24:56;7.30;;;1.98;;
18834;SDS011;9546;59.262;18.036;2022-08-21T10:27:31;6.00;;;1.92;;
18834;SDS011;9546;59.262;18.036;2022-08-21T10:30:09;5.78;;;1.55;;
18834;SDS011;9546;59.262;18.036;2022-08-21T10:32:43;4.78;;;1.83;;
18834;SDS011;9546;59.262;18.036;2022-08-21T10:35:22;4.88;;;1.63;;
18834;SDS011;9546;59.262;18.036;2022-08-21T10:41:14;2.78;;;1.25;;
18834;SDS011;9546;59.262;18.036;2022-08-21T10:43:49;4.72;;;1.50;;
18834;SDS011;9546;59.262;18.036;2022-08-21T10:46:27;3.60;;;1.50;;
18834;SDS011;9546;59.262;18.036;2022-08-21T10:49:10;3.85;;;1.30;;
18834;SDS011;9546;59.262;18.036;2022-08-21T10:51:48;5.50;;;2.00;;
18834;SDS011;9546;59.262;18.036;2022-08-21T11:12:31;5.55;;;1.70;;
18834;SDS011;9546;59.262;18.036;2022-08-21T11:15:02;4.25;;;1.60;;
18834;SDS011;9546;59.262;18.036;2022-08-21T11:17:32;3.08;;;1.60;;
18834;SDS011;9546;59.262;18.036;2022-08-21T11:20:03;3.33;;;1.45;;
18834;SDS011;9546;59.262;18.036;2022-08-21T11:22:33;4.15;;;1.75;;
18834;SDS011;9546;59.262;18.036;2022-08-21T11:25:02;4.13;;;1.60;;
18834;SDS011;9546;59.262;18.036;2022-08-21T11:27:33;5.35;;;1.83;;
18834;SDS011;9546;59.262;18.036;2022-08-21T11:30:03;4.88;;;1.83;;
18834;SDS011;9546;59.262;18.036;2022-08-21T11:32:35;4.07;;;1.55;;
18834;SDS011;9546;59.262;18.036;2022-08-21T11:35:07;5.78;;;2.22;;
18834;SDS011;9546;59.262;18.036;2022-08-21T11:37:44;4.60;;;1.70;;
18834;SDS011;9546;59.262;18.036;2022-08-21T11:40:13;5.30;;;1.88;;
18834;SDS011;9546;59.262;18.036;2022-08-21T11:42:45;5.28;;;2.03;;
18834;SDS011;9546;59.262;18.036;2022-08-21T11:45:18;3.65;;;1.63;;
18834;SDS011;9546;59.262;18.036;2022-08-21T11:47:54;6.30;;;1.77;;
18834;SDS011;9546;59.262;18.036;2022-08-21T11:50:23;3.95;;;1.60;;
18834;SDS011;9546;59.262;18.036;2022-08-21T11:52:52;4.63;;;1.50;;
18834;SDS011;9546;59.262;18.036;2022-08-21T11:55:22;5.57;;;1.42;;
18834;SDS011;9546;59.262;18.036;2022-08-21T11:57:52;4.07;;;1.70;;
18834;SDS011;9546;59.262;18.036;2022-08-21T12:00:22;5.50;;;1.75;;
18834;SDS011;9546;59.262;18.036;2022-08-21T12:02:51;3.47;;;1.60;;
18834;SDS011;9546;59.262;18.036;2022-08-21T12:05:29;5.75;;;1.75;;
18834;SDS011;9546;59.262;18.036;2022-08-21T12:08:00;5.57;;;1.70;;
18834;SDS011;9546;59.262;18.036;2022-08-21T12:10:32;5.05;;;1.83;;
18834;SDS011;9546;59.262;18.036;2022-08-21T12:13:06;2.75;;;1.52;;
18834;SDS011;9546;59.262;18.036;2022-08-21T12:15:34;3.63;;;1.80;;
18834;SDS011;9546;59.262;18.036;2022-08-21T12:18:01;5.20;;;1.48;;
18834;SDS011;9546;59.262;18.036;2022-08-21T12:20:39;4.30;;;1.50;;
18834;SDS011;9546;59.262;18.036;2022-08-21T12:23:15;5.75;;;1.92;;
18834;SDS011;9546;59.262;18.036;2022-08-21T12:25:43;3.75;;;1.40;;
18834;SDS011;9546;59.262;18.036;2022-08-21T12:28:11;2.50;;;1.40;;
18834;SDS011;9546;59.262;18.036;2022-08-21T12:30:40;4.85;;;2.20;;
18834;SDS011;9546;59.262;18.036;2022-08-21T12:33:17;1.95;;;1.20;;
18834;SDS011;9546;59.262;18.036;2022-08-21T12:35:46;4.22;;;1.40;;
18834;SDS011;9546;59.262;18.036;2022-08-21T12:38:15;9.40;;;1.15;;
18834;SDS011;9546;59.262;18.036;2022-08-21T12:40:43;3.83;;;1.38;;
18834;SDS011;9546;59.262;18.036;2022-08-21T12:43:14;1.80;;;0.95;;
18834;SDS011;9546;59.262;18.036;2022-08-21T12:45:43;3.97;;;1.45;;
18834;SDS011;9546;59.262;18.036;2022-08-21T12:48:13;2.40;;;1.00;;
18834;SDS011;9546;59.262;18.036;2022-08-21T12:50:43;1.73;;;0.70;;
18834;SDS011;9546;59.262;18.036;2022-08-21T13:12:48;2.75;;;1.40;;
18834;SDS011;9546;59.262;18.036;2022-08-21T13:15:21;4.07;;;1.13;;
18834;SDS011;9546;59.262;18.036;2022-08-21T13:17:51;1.08;;;0.75;;
18834;SDS011;9546;59.262;18.036;2022-08-21T13:20:19;2.45;;;0.95;;
18834;SDS011;9546;59.262;18.036;2022-08-21T13:22:48;2.40;;;1.08;;
18834;SDS011;9546;59.262;18.036;2022-08-21T13:25:16;4.35;;;1.40;;
18834;SDS011;9546;59.262;18.036;2022-08-21T13:27:57;1.92;;;1.10;;
18834;SDS011;9546;59.262;18.036;2022-08-21T13:30:25;1.17;;;1.00;;
18834;SDS011;9546;59.262;18.036;2022-08-21T13:32:55;2.85;;;1.02;;
18834;SDS011;9546;59.262;18.036;2022-08-21T13:35:25;1.23;;;0.75;;
18834;SDS011;9546;59.262;18.036;2022-08-21T13:37:54;2.67;;;0.80;;
18834;SDS011;9546;59.262;18.036;2022-08-21T13:40:24;1.60;;;0.80;;
18834;SDS011;9546;59.262;18.036;2022-08-21T13:42:53;1.67;;;0.95;;
18834;SDS011;9546;59.262;18.036;2022-08-21T13:45:29;3.53;;;0.82;;
18834;SDS011;9546;59.262;18.036;2022-08-21T13:47:59;1.85;;;0.90;;
18834;SDS011;9546;59.262;18.036;2022-08-21T13:50:27;1.20;;;0.70;;
18834;SDS011;9546;59.262;18.036;2022-08-21T13:52:56;0.85;;;0.77;;
18834;SDS011;9546;59.262;18.036;2022-08-21T13:55:34;2.53;;;1.10;;
18834;SDS011;9546;59.262;18.036;2022-08-21T13:58:03;1.90;;;1.00;;
18834;SDS011;9546;59.262;18.036;2022-08-21T14:00:33;3.28;;;0.88;;
18834;SDS011;9546;59.262;18.036;2022-08-21T14:03:09;1.80;;;0.80;;
18834;SDS011;9546;59.262;18.036;2022-08-21T14:05:38;2.63;;;1.15;;
18834;SDS011;9546;59.262;18.036;2022-08-21T14:08:13;2.78;;;1.13;;
18834;SDS011;9546;59.262;18.036;2022-08-21T14:10:43;1.67;;;1.00;;
18834;SDS011;9546;59.262;18.036;2022-08-21T14:13:22;2.20;;;0.90;;
18834;SDS011;9546;59.262;18.036;2022-08-21T14:16:09;1.80;;;1.20;;
18834;SDS011;9546;59.262;18.036;2022-08-21T14:18:43;3.35;;;1.00;;
18834;SDS011;9546;59.262;18.036;2022-08-21T14:21:11;3.13;;;0.95;;
18834;SDS011;9546;59.262;18.036;2022-08-21T14:23:38;2.25;;;1.00;;
18834;SDS011;9546;59.262;18.036;2022-08-21T14:26:07;2.58;;;0.80;;
18834;SDS011;9546;59.262;18.036;2022-08-21T14:28:38;2.78;;;1.20;;
18834;SDS011;9546;59.262;18.036;2022-08-21T14:31:13;3.13;;;1.13;;
18834;SDS011;9546;59.262;18.036;2022-08-21T14:33:42;3.35;;;1.00;;
18834;SDS011;9546;59.262;18.036;2022-08-21T14:36:09;1.05;;;0.77;;
18834;SDS011;9546;59.262;18.036;2022-08-21T14:38:37;1.00;;;0.88;;
18834;SDS011;9546;59.262;18.036;2022-08-21T14:41:09;1.40;;;1.20;;
18834;SDS011;9546;59.262;18.036;2022-08-21T14:43:42;2.53;;;1.20;;
18834;SDS011;9546;59.262;18.036;2022-08-21T14:46:10;1.83;;;1.05;;
18834;SDS011;9546;59.262;18.036;2022-08-21T14:48:44;1.90;;;1.02;;
18834;SDS011;9546;59.262;18.036;2022-08-21T14:51:11;4.53;;;1.52;;
18834;SDS011;9546;59.262;18.036;2022-08-21T15:12:59;2.92;;;1.15;;
18834;SDS011;9546;59.262;18.036;2022-08-21T15:15:26;1.85;;;1.05;;
18834;SDS011;9546;59.262;18.036;2022-08-21T15:18:05;2.47;;;1.00;;
18834;SDS011;9546;59.262;18.036;2022-08-21T15:20:32;2.42;;;1.00;;
18834;SDS011;9546;59.262;18.036;2022-08-21T15:22:59;4.32;;;1.30;;
18834;SDS011;9546;59.262;18.036;2022-08-21T15:25:26;2.40;;;1.27;;
18834;SDS011;9546;59.262;18.036;2022-08-21T15:27:53;3.05;;;1.10;;
18834;SDS011;9546;59.262;18.036;2022-08-21T15:30:22;2.55;;;1.02;;
18834;SDS011;9546;59.262;18.036;2022-08-21T15:32:49;2.67;;;1.17;;
18834;SDS011;9546;59.262;18.036;2022-08-21T15:35:16;5.22;;;1.35;;
18834;SDS011;9546;59.262;18.036;2022-08-21T15:37:43;2.28;;;1.38;;
18834;SDS011;9546;59.262;18.036;2022-08-21T15:40:10;2.42;;;1.20;;
18834;SDS011;9546;59.262;18.036;2022-08-21T15:42:38;1.27;;;1.00;;
18834;SDS011;9546;59.262;18.036;2022-08-21T15:45:06;1.63;;;0.82;;
18834;SDS011;9546;59.262;18.036;2022-08-21T15:47:35;2.33;;;1.13;;
18834;SDS011;9546;59.262;18.036;2022-08-21T15:50:04;3.33;;;0.93;;
18834;SDS011;9546;59.262;18.036;2022-08-21T15:52:33;3.00;;;1.20;;
18834;SDS011;9546;59.262;18.036;2022-08-21T15:55:00;1.65;;;1.05;;
18834;SDS011;9546;59.262;18.036;2022-08-21T15:57:27;2.65;;;0.95;;
18834;SDS011;9546;59.262;18.036;2022-08-21T15:59:55;2.70;;;1.20;;
18834;SDS011;9546;59.262;18.036;2022-08-21T16:02:26;3.25;;;1.27;;
18834;SDS011;9546;59.262;18.036;2022-08-21T16:04:56;2.33;;;1.00;;
18834;SDS011;9546;59.262;18.036;2022-08-21T16:07:24;2.38;;;0.93;;
18834;SDS011;9546;59.262;18.036;2022-08-21T16:09:51;1.40;;;0.70;;
18834;SDS011;9546;59.262;18.036;2022-08-21T16:12:19;3.53;;;1.13;;
18834;SDS011;9546;59.262;18.036;2022-08-21T16:14:50;1.83;;;1.05;;
18834;SDS011;9546;59.262;18.036;2022-08-21T16:17:18;2.83;;;0.88;;
18834;SDS011;9546;59.262;18.036;2022-08-21T16:19:47;1.65;;;0.80;;
18834;SDS011;9546;59.262;18.036;2022-08-21T16:22:15;1.60;;;1.17;;
18834;SDS011;9546;59.262;18.036;2022-08-21T16:24:42;3.20;;;0.80;;
18834;SDS011;9546;59.262;18.036;2022-08-21T16:27:09;2.30;;;1.40;;
18834;SDS011;9546;59.262;18.036;2022-08-21T16:29:36;4.70;;;1.20;;
18834;SDS011;9546;59.262;18.036;2022-08-21T16:32:03;2.92;;;1.27;;
18834;SDS011;9546;59.262;18.036;2022-08-21T16:34:31;1.80;;;0.90;;
18834;SDS011;9546;59.262;18.036;2022-08-21T16:36:58;1.67;;;0.95;;
18834;SDS011;9546;59.262;18.036;2022-08-21T16:39:27;4.95;;;2.60;;
18834;SDS011;9546;59.262;18.036;2022-08-21T16:41:54;2.58;;;0.90;;
18834;SDS011;9546;59.262;18.036;2022-08-21T16:44:22;2.80;;;1.27;;
18834;SDS011;9546;59.262;18.036;2022-08-21T16:46:49;2.28;;;1.20;;
18834;SDS011;9546;59.262;18.036;2022-08-21T16:49:15;2.67;;;1.33;;
18834;SDS011;9546;59.262;18.036;2022-08-21T16:51:42;1.88;;;1.20;;
18834;SDS011;9546;59.262;18.036;2022-08-21T17:12:34;2.42;;;1.45;;
18834;SDS011;9546;59.262;18.036;2022-08-21T17:15:02;2.50;;;1.58;;
18834;SDS011;9546;59.262;18.036;2022-08-21T17:17:30;3.28;;;1.60;;
18834;SDS011;9546;59.262;18.036;2022-08-21T17:19:56;2.50;;;1.63;;
18834;SDS011;9546;59.262;18.036;2022-08-21T17:22:23;3.58;;;1.40;;
18834;SDS011;9546;59.262;18.036;2022-08-21T17:24:49;2.45;;;1.60;;
18834;SDS011;9546;59.262;18.036;2022-08-21T17:27:16;4.65;;;1.42;;
18834;SDS011;9546;59.262;18.036;2022-08-21T17:29:44;2.60;;;1.35;;
18834;SDS011;9546;59.262;18.036;2022-08-21T17:32:11;5.22;;;1.50;;
18834;SDS011;9546;59.262;18.036;2022-08-21T17:34:39;2.95;;;1.17;;
18834;SDS011;9546;59.262;18.036;2022-08-21T17:37:05;3.08;;;1.30;;
18834;SDS011;9546;59.262;18.036;2022-08-21T17:39:32;2.08;;;1.15;;
18834;SDS011;9546;59.262;18.036;2022-08-21T17:42:00;3.45;;;1.38;;
18834;SDS011;9546;59.262;18.036;2022-08-21T17:44:28;3.40;;;1.80;;
18834;SDS011;9546;59.262;18.036;2022-08-21T17:46:56;3.05;;;1.40;;
18834;SDS011;9546;59.262;18.036;2022-08-21T17:49:23;2.95;;;2.45;;
18834;SDS011;9546;59.262;18.036;2022-08-21T17:51:50;2.95;;;1.20;;
18834;SDS011;9546;59.262;18.036;2022-08-21T17:54:16;3.88;;;1.75;;
18834;SDS011;9546;59.262;18.036;2022-08-21T17:56:43;4.00;;;1.20;;